sensor_id;sensor_type;location;lat;lon;timestamp;temperature;humidity
53274;DHT22;39163;52.696;6.758;2022-12-24T00:00:09;9.20;99.90
53274;DHT22;39163;52.696;6.758;2022-12-24T00:02:35;9.20;99.90
53274;DHT22;39163;52.696;6.758;2022-12-24T00:05:01;9.20;99.90
53274;DHT22;39163;52.696;6.758;2022-12-24T00:07:27;9.20;99.90
53274;DHT22;39163;52.696;6.758;2022-12-24T00:09:58;9.30;99.90
53274;DHT22;39163;52.696;6.758;2022-12-24T00:12:24;9.30;99.90
53274;DHT22;39163;52.696;6.758;2022-12-24T00:17:45;9.30;99.90
53274;DHT22;39163;52.696;6.758;2022-12-24T00:20:13;9.30;99.90
53274;DHT22;39163;52.696;6.758;2022-12-24T00:22:39;9.20;99.90
53274;DHT22;39163;52.696;6.758;2022-12-24T00:25:05;9.30;99.90
53274;DHT22;39163;52.696;6.758;2022-12-24T00:27:34;9.20;99.90
53274;DHT22;39163;52.696;6.758;2022-12-24T00:39:04;9.20;99.90
53274;DHT22;39163;52.696;6.758;2022-12-24T02:04:15;9.20;99.90
53274;DHT22;39163;52.696;6.758;2022-12-24T02:06:42;9.20;99.90
53274;DHT22;39163;52.696;6.758;2022-12-24T02:09:08;9.20;99.90
53274;DHT22;39163;52.696;6.758;2022-12-24T02:11:33;9.20;99.90
53274;DHT22;39163;52.696;6.758;2022-12-24T02:14:01;9.20;99.90
53274;DHT22;39163;52.696;6.758;2022-12-24T02:21:36;9.20;99.90
53274;DHT22;39163;52.696;6.758;2022-12-24T02:32:02;9.30;99.90
53274;DHT22;39163;52.696;6.758;2022-12-24T02:39:29;9.30;99.90
53274;DHT22;39163;52.696;6.758;2022-12-24T02:41:58;9.30;99.90
53274;DHT22;39163;52.696;6.758;2022-12-24T02:44:30;9.30;99.90
53274;DHT22;39163;52.696;6.758;2022-12-24T02:46:58;9.40;99.90
53274;DHT22;39163;52.696;6.758;2022-12-24T02:49:27;9.30;99.90
53274;DHT22;39163;52.696;6.758;2022-12-24T02:51:53;9.30;99.90
53274;DHT22;39163;52.696;6.758;2022-12-24T02:54:18;9.30;99.90
53274;DHT22;39163;52.696;6.758;2022-12-24T03:00:19;9.40;99.90
53274;DHT22;39163;52.696;6.758;2022-12-24T03:02:33;9.40;99.90
53274;DHT22;39163;52.696;6.758;2022-12-24T03:19:04;9.60;99.90
53274;DHT22;39163;52.696;6.758;2022-12-24T03:25:55;9.50;99.90
53274;DHT22;39163;52.696;6.758;2022-12-24T03:28:33;9.50;99.90
53274;DHT22;39163;52.696;6.758;2022-12-24T03:31:02;9.50;99.90
53274;DHT22;39163;52.696;6.758;2022-12-24T03:36:24;9.40;99.90
53274;DHT22;39163;52.696;6.758;2022-12-24T03:41:50;9.40;99.90
53274;DHT22;39163;52.696;6.758;2022-12-24T04:01:31;9.40;99.90
53274;DHT22;39163;52.696;6.758;2022-12-24T04:03:56;9.40;99.90
53274;DHT22;39163;52.696;6.758;2022-12-24T04:06:22;9.40;99.90
53274;DHT22;39163;52.696;6.758;2022-12-24T04:08:48;9.40;99.90
53274;DHT22;39163;52.696;6.758;2022-12-24T04:11:16;9.40;99.90
53274;DHT22;39163;52.696;6.758;2022-12-24T04:13:45;9.40;99.90
53274;DHT22;39163;52.696;6.758;2022-12-24T04:16:31;9.40;99.90
53274;DHT22;39163;52.696;6.758;2022-12-24T04:19:29;9.50;99.90
53274;DHT22;39163;52.696;6.758;2022-12-24T04:24:43;9.40;99.90
53274;DHT22;39163;52.696;6.758;2022-12-24T04:27:14;9.40;99.90
53274;DHT22;39163;52.696;6.758;2022-12-24T04:29:50;9.40;99.90
53274;DHT22;39163;52.696;6.758;2022-12-24T04:32:15;9.40;99.90
53274;DHT22;39163;52.696;6.758;2022-12-24T04:34:41;9.40;99.90
53274;DHT22;39163;52.696;6.758;2022-12-24T04:37:07;9.40;99.90
53274;DHT22;39163;52.696;6.758;2022-12-24T04:39:33;9.30;99.90
53274;DHT22;39163;52.696;6.758;2022-12-24T04:41:58;9.30;99.90
53274;DHT22;39163;52.696;6.758;2022-12-24T04:44:24;9.30;99.90
53274;DHT22;39163;52.696;6.758;2022-12-24T04:46:49;9.30;99.90
53274;DHT22;39163;52.696;6.758;2022-12-24T04:49:15;9.30;99.90
53274;DHT22;39163;52.696;6.758;2022-12-24T04:51:41;9.30;99.90
53274;DHT22;39163;52.696;6.758;2022-12-24T04:54:06;9.30;99.90
53274;DHT22;39163;52.696;6.758;2022-12-24T04:56:35;9.30;99.90
53274;DHT22;39163;52.696;6.758;2022-12-24T04:59:03;9.30;99.90
53274;DHT22;39163;52.696;6.758;2022-12-24T05:01:30;9.30;99.90
53274;DHT22;39163;52.696;6.758;2022-12-24T05:04:04;9.30;99.90
53274;DHT22;39163;52.696;6.758;2022-12-24T05:06:41;9.20;99.90
53274;DHT22;39163;52.696;6.758;2022-12-24T05:09:12;9.30;99.90
53274;DHT22;39163;52.696;6.758;2022-12-24T05:11:44;9.30;99.90
53274;DHT22;39163;52.696;6.758;2022-12-24T05:14:09;9.30;99.90
53274;DHT22;39163;52.696;6.758;2022-12-24T05:16:35;9.30;99.90
53274;DHT22;39163;52.696;6.758;2022-12-24T05:19:05;9.30;99.90
53274;DHT22;39163;52.696;6.758;2022-12-24T05:21:31;9.30;99.90
53274;DHT22;39163;52.696;6.758;2022-12-24T05:24:02;9.30;99.90
53274;DHT22;39163;52.696;6.758;2022-12-24T05:26:55;9.30;99.90
53274;DHT22;39163;52.696;6.758;2022-12-24T05:29:24;9.30;99.90
53274;DHT22;39163;52.696;6.758;2022-12-24T05:32:01;9.30;99.90
53274;DHT22;39163;52.696;6.758;2022-12-24T05:34:47;9.30;99.90
53274;DHT22;39163;52.696;6.758;2022-12-24T05:37:25;9.30;99.90
53274;DHT22;39163;52.696;6.758;2022-12-24T05:40:01;9.30;99.90
53274;DHT22;39163;52.696;6.758;2022-12-24T05:42:49;9.20;99.90
53274;DHT22;39163;52.696;6.758;2022-12-24T05:45:23;9.30;99.90
53274;DHT22;39163;52.696;6.758;2022-12-24T05:47:55;9.30;99.90
53274;DHT22;39163;52.696;6.758;2022-12-24T05:50:31;9.30;99.90
53274;DHT22;39163;52.696;6.758;2022-12-24T05:53:02;9.20;99.90
53274;DHT22;39163;52.696;6.758;2022-12-24T05:55:39;9.20;99.90
53274;DHT22;39163;52.696;6.758;2022-12-24T05:58:14;9.20;99.90
53274;DHT22;39163;52.696;6.758;2022-12-24T06:00:40;9.20;99.90
53274;DHT22;39163;52.696;6.758;2022-12-24T06:03:11;9.20;99.90
53274;DHT22;39163;52.696;6.758;2022-12-24T06:05:40;9.20;99.90
53274;DHT22;39163;52.696;6.758;2022-12-24T06:08:11;9.20;99.90
53274;DHT22;39163;52.696;6.758;2022-12-24T06:10:42;9.20;99.90
53274;DHT22;39163;52.696;6.758;2022-12-24T06:13:10;9.20;99.90
53274;DHT22;39163;52.696;6.758;2022-12-24T06:15:36;9.20;99.90
53274;DHT22;39163;52.696;6.758;2022-12-24T06:18:02;9.20;99.90
53274;DHT22;39163;52.696;6.758;2022-12-24T06:20:27;9.10;99.90
53274;DHT22;39163;52.696;6.758;2022-12-24T06:22:54;9.10;99.90
53274;DHT22;39163;52.696;6.758;2022-12-24T06:25:21;9.10;99.90
53274;DHT22;39163;52.696;6.758;2022-12-24T06:27:47;9.10;99.90
53274;DHT22;39163;52.696;6.758;2022-12-24T06:30:13;9.10;99.90
53274;DHT22;39163;52.696;6.758;2022-12-24T06:32:38;9.10;99.90
53274;DHT22;39163;52.696;6.758;2022-12-24T06:35:04;9.10;99.90
53274;DHT22;39163;52.696;6.758;2022-12-24T06:40:36;9.10;99.90
53274;DHT22;39163;52.696;6.758;2022-12-24T06:43:04;9.10;99.90
53274;DHT22;39163;52.696;6.758;2022-12-24T06:45:30;9.00;99.90
53274;DHT22;39163;52.696;6.758;2022-12-24T06:47:59;9.00;99.90
53274;DHT22;39163;52.696;6.758;2022-12-24T06:50:25;8.90;99.90
53274;DHT22;39163;52.696;6.758;2022-12-24T08:21:30;8.90;99.90
53274;DHT22;39163;52.696;6.758;2022-12-24T08:23:56;9.00;99.90
53274;DHT22;39163;52.696;6.758;2022-12-24T08:26:21;9.00;99.90
53274;DHT22;39163;52.696;6.758;2022-12-24T08:28:47;9.00;99.90
53274;DHT22;39163;52.696;6.758;2022-12-24T08:31:12;9.00;99.90
53274;DHT22;39163;52.696;6.758;2022-12-24T08:33:40;9.00;99.90
53274;DHT22;39163;52.696;6.758;2022-12-24T08:36:05;9.00;99.90
53274;DHT22;39163;52.696;6.758;2022-12-24T08:38:31;9.10;99.90
53274;DHT22;39163;52.696;6.758;2022-12-24T08:40:57;9.10;99.90
53274;DHT22;39163;52.696;6.758;2022-12-24T08:43:22;9.10;99.90
53274;DHT22;39163;52.696;6.758;2022-12-24T08:45:49;9.10;99.90
53274;DHT22;39163;52.696;6.758;2022-12-24T08:48:15;9.20;99.90
53274;DHT22;39163;52.696;6.758;2022-12-24T08:50:42;9.20;99.90
53274;DHT22;39163;52.696;6.758;2022-12-24T08:53:08;9.20;99.90
53274;DHT22;39163;52.696;6.758;2022-12-24T08:55:33;9.30;99.90
53274;DHT22;39163;52.696;6.758;2022-12-24T08:57:59;9.30;99.90
53274;DHT22;39163;52.696;6.758;2022-12-24T09:00:26;9.30;99.90
53274;DHT22;39163;52.696;6.758;2022-12-24T09:02:52;9.30;99.90
53274;DHT22;39163;52.696;6.758;2022-12-24T09:05:18;9.40;99.90
53274;DHT22;39163;52.696;6.758;2022-12-24T09:07:43;9.40;99.90
53274;DHT22;39163;52.696;6.758;2022-12-24T09:10:09;9.50;99.90
53274;DHT22;39163;52.696;6.758;2022-12-24T09:12:35;9.50;99.90
53274;DHT22;39163;52.696;6.758;2022-12-24T09:15:01;9.50;99.90
53274;DHT22;39163;52.696;6.758;2022-12-24T09:17:30;9.50;99.90
53274;DHT22;39163;52.696;6.758;2022-12-24T09:19:56;9.60;99.90
53274;DHT22;39163;52.696;6.758;2022-12-24T09:22:22;9.60;99.90
53274;DHT22;39163;52.696;6.758;2022-12-24T09:24:47;9.60;99.90
53274;DHT22;39163;52.696;6.758;2022-12-24T09:27:13;9.70;99.90
53274;DHT22;39163;52.696;6.758;2022-12-24T09:29:38;9.80;99.90
53274;DHT22;39163;52.696;6.758;2022-12-24T09:32:05;9.80;99.90
53274;DHT22;39163;52.696;6.758;2022-12-24T09:34:31;9.90;99.90
53274;DHT22;39163;52.696;6.758;2022-12-24T09:36:57;10.00;99.90
53274;DHT22;39163;52.696;6.758;2022-12-24T09:39:33;10.10;99.90
53274;DHT22;39163;52.696;6.758;2022-12-24T09:50:08;10.00;99.90
53274;DHT22;39163;52.696;6.758;2022-12-24T09:52:41;10.00;99.90
53274;DHT22;39163;52.696;6.758;2022-12-24T09:55:43;10.00;99.90
53274;DHT22;39163;52.696;6.758;2022-12-24T09:58:02;10.00;99.90
53274;DHT22;39163;52.696;6.758;2022-12-24T10:00:29;10.00;99.90
53274;DHT22;39163;52.696;6.758;2022-12-24T10:02:56;10.00;99.90
53274;DHT22;39163;52.696;6.758;2022-12-24T10:05:32;10.00;99.90
53274;DHT22;39163;52.696;6.758;2022-12-24T10:10:49;9.90;99.90
53274;DHT22;39163;52.696;6.758;2022-12-24T10:13:22;9.80;99.90
53274;DHT22;39163;52.696;6.758;2022-12-24T10:23:45;9.70;99.90
53274;DHT22;39163;52.696;6.758;2022-12-24T10:28:51;9.60;99.90
53274;DHT22;39163;52.696;6.758;2022-12-24T10:31:23;9.60;99.90
53274;DHT22;39163;52.696;6.758;2022-12-24T10:33:52;9.50;99.90
53274;DHT22;39163;52.696;6.758;2022-12-24T10:36:22;9.50;99.90
53274;DHT22;39163;52.696;6.758;2022-12-24T10:38:49;9.50;99.90
53274;DHT22;39163;52.696;6.758;2022-12-24T10:41:15;9.50;99.90
53274;DHT22;39163;52.696;6.758;2022-12-24T10:43:41;9.50;99.90
53274;DHT22;39163;52.696;6.758;2022-12-24T10:46:21;9.60;99.90
53274;DHT22;39163;52.696;6.758;2022-12-24T10:48:52;9.70;99.90
53274;DHT22;39163;52.696;6.758;2022-12-24T10:53:49;9.90;99.90
53274;DHT22;39163;52.696;6.758;2022-12-24T10:56:15;9.80;99.90
53274;DHT22;39163;52.696;6.758;2022-12-24T10:58:42;9.80;99.90
53274;DHT22;39163;52.696;6.758;2022-12-24T11:01:08;9.80;99.90
53274;DHT22;39163;52.696;6.758;2022-12-24T11:03:34;9.90;99.90
53274;DHT22;39163;52.696;6.758;2022-12-24T11:08:29;9.90;99.90
53274;DHT22;39163;52.696;6.758;2022-12-24T11:13:24;10.00;99.90
53274;DHT22;39163;52.696;6.758;2022-12-24T11:16:01;10.00;99.90
53274;DHT22;39163;52.696;6.758;2022-12-24T11:18:27;10.10;99.90
53274;DHT22;39163;52.696;6.758;2022-12-24T11:20:53;10.20;99.90
53274;DHT22;39163;52.696;6.758;2022-12-24T11:23:19;10.10;99.90
53274;DHT22;39163;52.696;6.758;2022-12-24T11:25:46;10.20;99.90
53274;DHT22;39163;52.696;6.758;2022-12-24T11:28:20;10.20;99.90
53274;DHT22;39163;52.696;6.758;2022-12-24T11:33:27;10.20;99.90
53274;DHT22;39163;52.696;6.758;2022-12-24T11:35:56;10.20;99.90
53274;DHT22;39163;52.696;6.758;2022-12-24T11:38:25;10.20;99.90
53274;DHT22;39163;52.696;6.758;2022-12-24T11:41:10;10.20;99.90
53274;DHT22;39163;52.696;6.758;2022-12-24T11:43:42;10.30;99.90
53274;DHT22;39163;52.696;6.758;2022-12-24T11:46:20;10.40;99.90
53274;DHT22;39163;52.696;6.758;2022-12-24T11:48:47;10.40;99.90
53274;DHT22;39163;52.696;6.758;2022-12-24T11:51:25;10.50;99.90
53274;DHT22;39163;52.696;6.758;2022-12-24T11:57:22;10.60;99.90
53274;DHT22;39163;52.696;6.758;2022-12-24T11:59:54;10.60;99.90
53274;DHT22;39163;52.696;6.758;2022-12-24T12:02:28;10.50;99.90
53274;DHT22;39163;52.696;6.758;2022-12-24T12:05:45;10.50;99.90
53274;DHT22;39163;52.696;6.758;2022-12-24T12:10:47;10.60;99.90
53274;DHT22;39163;52.696;6.758;2022-12-24T12:57:47;10.70;99.90
53274;DHT22;39163;52.696;6.758;2022-12-24T13:00:54;10.70;99.90
53274;DHT22;39163;52.696;6.758;2022-12-24T15:04:37;9.60;99.90
53274;DHT22;39163;52.696;6.758;2022-12-24T15:07:21;9.60;99.90
53274;DHT22;39163;52.696;6.758;2022-12-24T18:28:38;5.80;99.90
53274;DHT22;39163;52.696;6.758;2022-12-24T18:31:07;5.60;99.90
53274;DHT22;39163;52.696;6.758;2022-12-24T18:33:38;5.40;99.90
53274;DHT22;39163;52.696;6.758;2022-12-24T18:36:16;5.50;99.90
53274;DHT22;39163;52.696;6.758;2022-12-24T18:39:20;5.60;99.90
53274;DHT22;39163;52.696;6.758;2022-12-24T18:41:48;5.60;99.90
53274;DHT22;39163;52.696;6.758;2022-12-24T18:44:14;5.60;99.90
53274;DHT22;39163;52.696;6.758;2022-12-24T18:46:39;5.70;99.90
53274;DHT22;39163;52.696;6.758;2022-12-24T18:49:09;5.80;99.90
53274;DHT22;39163;52.696;6.758;2022-12-24T18:51:58;5.90;99.90
53274;DHT22;39163;52.696;6.758;2022-12-24T18:57:32;6.20;99.90
53274;DHT22;39163;52.696;6.758;2022-12-24T19:00:24;6.30;99.90
53274;DHT22;39163;52.696;6.758;2022-12-24T19:03:37;6.40;99.90
53274;DHT22;39163;52.696;6.758;2022-12-24T19:06:16;6.50;99.90
53274;DHT22;39163;52.696;6.758;2022-12-24T19:09:03;6.70;99.90
